Terminal Aerodrome Forecast
Issued by NWS

Home | Current Version | Previous Version | Text Only | Print | Product List | Glossary On
Versions: 1 2 3 4 5 6 7 8 9 10 11 12 13 14
000
FTUS46 KSTO 061346 AAA
TAFSMF
TAF AMD
KSMF 061346Z 0614/0712 20004KT P6SM OVC050
     FM061800 17008KT 3SM -RA OVC030
     FM070000 18008KT P6SM VCSH BKN040
     FM070600 18005KT P6SM OVC050=

USA.gov is the U.S. government's official web portal to all federal, state and local government web resources and services.